Time;durP1;ratioP1;P1;durP2;ratioP2;P2;SDS_P1;SDS_P2;PMS_P1;PMS_P2;Temp;Humidity;BMP_temperature;BMP_pressure;BME280_temperature;BME280_humidity;BME280_pressure;Samples;Min_cycle;Max_cycle;Signal;HPM_P1;HPM_P2
2022/08/15 00:01:08;;;;;;;8.93;7.78;;;;;;;23.23;65.20;99602.98;1825727;76;21914;-71
2022/08/15 00:03:39;;;;;;;9.68;7.90;;;;;;;23.23;65.24;99596.25;1824623;77;21501;-72
2022/08/15 00:06:10;;;;;;;9.65;7.95;;;;;;;23.23;65.25;99586.30;1822492;76;20966;-71
2022/08/15 00:08:40;;;;;;;8.58;7.53;;;;;;;23.20;65.22;99589.44;1820910;76;21064;-74
2022/08/15 00:11:11;;;;;;;12.30;7.40;;;;;;;23.17;65.27;99583.16;1824349;76;20997;-70
2022/08/15 00:13:39;;;;;;;8.78;7.42;;;;;;;23.17;65.22;99590.42;1834688;76;21924;-72
2022/08/15 00:16:06;;;;;;;8.80;7.50;;;;;;;23.18;65.15;99592.89;1813411;77;20924;-71
2022/08/15 00:18:33;;;;;;;8.65;7.75;;;;;;;23.19;65.07;99589.15;1831405;77;21001;-72
2022/08/15 00:21:01;;;;;;;9.78;7.37;;;;;;;23.19;65.01;99581.59;1827322;76;21045;-70
2022/08/15 00:23:27;;;;;;;9.90;7.37;;;;;;;23.19;65.04;99581.06;1807867;76;20985;-74
2022/08/15 00:25:58;;;;;;;8.68;7.40;;;;;;;23.19;65.02;99578.38;1829841;76;21952;-71
2022/08/15 00:28:26;;;;;;;13.25;7.45;;;;;;;23.18;64.96;99582.11;1834795;76;21398;-72
2022/08/15 00:30:53;;;;;;;11.25;7.30;;;;;;;23.17;64.90;99576.42;1821876;76;21418;-70
2022/08/15 00:33:20;;;;;;;8.93;7.28;;;;;;;23.16;64.92;99568.02;1838608;76;20993;-71
2022/08/15 00:35:49;;;;;;;9.18;7.45;;;;;;;23.15;64.94;99569.07;1821813;77;21341;-72
2022/08/15 00:38:22;;;;;;;11.33;7.95;;;;;;;23.14;65.01;99562.03;1832220;76;21955;-72
2022/08/15 00:43:44;;;;;;;9.95;8.10;;;;;;;23.11;65.20;99564.66;1838860;77;21274;-71
2022/08/15 00:46:12;;;;;;;8.80;7.90;;;;;;;23.09;65.38;99569.98;1828352;76;21053;-71
2022/08/15 00:48:42;;;;;;;8.78;7.35;;;;;;;23.04;65.56;99570.62;1832329;76;21356;-71
2022/08/15 00:51:20;;;;;;;8.70;7.80;;;;;;;23.00;65.67;99566.75;1830931;77;23119;-71
2022/08/15 00:53:52;;;;;;;8.03;7.15;;;;;;;22.99;65.78;99559.72;1825590;77;20974;-71
2022/08/15 00:56:19;;;;;;;12.10;7.87;;;;;;;22.98;65.89;99551.86;1823630;76;21045;-72
2022/08/15 00:58:46;;;;;;;9.60;7.78;;;;;;;22.96;66.00;99550.72;1828367;76;21025;-70
2022/08/15 01:01:13;;;;;;;9.50;7.25;;;;;;;22.94;66.02;99550.64;1820756;76;21000;-71
2022/08/15 01:03:44;;;;;;;8.55;7.37;;;;;;;22.92;66.00;99547.36;1822058;76;21964;-71
2022/08/15 01:06:11;;;;;;;13.50;7.60;;;;;;;22.91;65.89;99547.88;1816834;77;20987;-71
2022/08/15 01:08:39;;;;;;;9.70;7.62;;;;;;;22.91;65.81;99555.14;1830213;76;21351;-73
2022/08/15 01:11:28;;;;;;;8.18;7.12;;;;;;;22.91;65.68;99553.27;1826622;76;20978;-71
2022/08/15 01:13:59;;;;;;;9.65;6.95;;;;;;;22.92;65.51;99541.97;1815906;76;21017;-70
2022/08/15 01:16:25;;;;;;;11.20;7.58;;;;;;;22.92;65.40;99546.83;1830913;77;22635;-70
2022/08/15 01:18:52;;;;;;;10.18;7.22;;;;;;;22.93;65.33;99540.39;1825429;77;21041;-71
2022/08/15 01:21:38;;;;;;;8.55;7.42;;;;;;;22.94;65.29;99542.56;1823141;77;21503;-72
2022/08/15 01:24:31;;;;;;;9.25;7.08;;;;;;;22.93;65.32;99543.09;1815962;76;20958;-71
2022/08/15 01:26:57;;;;;;;10.80;7.33;;;;;;;22.93;65.26;99536.36;1821318;77;20927;-72
2022/08/15 01:29:25;;;;;;;8.65;7.22;;;;;;;22.95;65.29;99534.26;1824714;77;22884;-70
2022/08/15 01:31:51;;;;;;;9.28;7.37;;;;;;;22.95;65.32;99537.47;1822748;76;20922;-70
2022/08/15 01:34:18;;;;;;;9.05;7.00;;;;;;;22.96;65.35;99542.63;1821697;76;20976;-81
2022/08/15 01:36:46;;;;;;;7.97;6.78;;;;;;;22.96;65.32;99531.86;1824866;76;20948;-70
2022/08/15 01:39:42;;;;;;;9.60;7.30;;;;;;;22.97;65.27;99536.72;1819417;77;21028;-71
2022/08/15 01:42:18;;;;;;;10.28;6.83;;;;;;;22.99;65.24;99538.70;1816170;76;21954;-70
2022/08/15 01:44:53;;;;;;;7.80;6.75;;;;;;;22.99;65.18;99527.92;1822656;77;20946;-70
2022/08/15 01:47:48;;;;;;;9.85;7.10;;;;;;;23.01;65.18;99528.52;1815678;77;21033;-70
2022/08/15 01:50:23;;;;;;;10.60;6.65;;;;;;;23.02;65.14;99527.47;1822562;77;20974;-69
2022/08/15 01:53:07;;;;;;;7.87;7.00;;;;;;;23.03;65.08;99524.55;1824199;77;21024;-70
2022/08/15 01:55:47;;;;;;;8.30;6.75;;;;;;;23.05;65.17;99521.63;1830372;77;21723;-70
2022/08/15 01:58:15;;;;;;;9.70;7.10;;;;;;;23.04;65.27;99519.45;1826328;77;20931;-70
2022/08/15 02:00:55;;;;;;;7.60;6.50;;;;;;;23.05;65.34;99521.63;1827852;76;21549;-75
2022/08/15 02:03:33;;;;;;;7.55;6.58;;;;;;;23.06;65.28;99521.92;1834796;76;21040;-71
2022/08/15 02:05:54;;;;;;;7.90;7.10;;;;;;;23.04;65.22;99526.19;1822753;77;20983;-70
2022/08/15 02:08:23;;;;;;;8.60;6.53;;;;;;;23.05;65.18;99522.97;1824571;76;21819;-71
2022/08/15 02:10:49;;;;;;;10.05;7.08;;;;;;;23.04;65.18;99521.33;1829460;77;21449;-73
2022/08/15 02:13:17;;;;;;;7.28;6.58;;;;;;;23.05;65.03;99520.28;1819330;76;21420;-71
2022/08/15 02:15:44;;;;;;;7.58;6.78;;;;;;;23.05;64.93;99518.41;1826239;77;20938;-70
2022/08/15 02:18:11;;;;;;;10.55;6.65;;;;;;;23.05;64.72;99518.41;1821884;77;21060;-70
2022/08/15 02:20:38;;;;;;;8.68;6.70;;;;;;;23.05;64.55;99511.67;1815507;76;22300;-70
2022/08/15 02:23:04;;;;;;;9.43;7.03;;;;;;;23.07;64.40;99518.20;1809601;77;20939;-79
2022/08/15 02:25:31;;;;;;;7.90;6.70;;;;;;;23.09;64.33;99516.93;1834063;76;21010;-71
2022/08/15 02:27:58;;;;;;;8.25;6.22;;;;;;;23.11;64.30;99512.66;1828665;77;21695;-71
2022/08/15 02:30:27;;;;;;;9.53;6.72;;;;;;;23.13;64.18;99517.30;1824397;77;20946;-71
2022/08/15 02:32:53;;;;;;;9.58;6.33;;;;;;;23.13;64.04;99512.73;1819727;77;21997;-70
2022/08/15 02:35:20;;;;;;;10.70;6.53;;;;;;;23.16;63.89;99508.75;1824236;76;21017;-70
2022/08/15 02:37:47;;;;;;;7.83;6.15;;;;;;;23.18;63.79;99506.68;1833351;77;21334;-71
2022/08/15 02:40:15;;;;;;;8.55;6.15;;;;;;;23.19;63.70;99511.02;1832423;76;21462;-70
2022/08/15 02:42:42;;;;;;;8.48;6.15;;;;;;;23.23;63.57;99511.38;1822615;77;22189;-73
2022/08/15 02:45:10;;;;;;;6.95;6.00;;;;;;;23.24;63.46;99513.02;1819101;76;21905;-71
2022/08/15 02:47:43;;;;;;;7.25;5.80;;;;;;;23.27;63.27;99524.20;1800567;77;21380;-71
2022/08/15 02:50:08;;;;;;;6.75;5.90;;;;;;;23.29;62.91;99511.84;1815879;76;20942;-75
2022/08/15 02:52:42;;;;;;;7.60;6.00;;;;;;;23.33;62.62;99515.72;1820755;76;20993;-71
2022/08/15 02:55:09;;;;;;;;;;;;;;;23.35;62.30;99513.61;1806413;76;21108;-71
2022/08/15 02:57:36;;;;;;;7.78;5.60;;;;;;;23.41;62.08;99508.67;1806588;76;21753;-70
2022/08/15 03:00:08;;;;;;;6.95;5.58;;;;;;;23.40;61.89;99511.90;1828187;77;21449;-70
2022/08/15 03:02:56;;;;;;;9.43;5.67;;;;;;;23.45;61.69;99513.08;1820718;76;21033;-71
2022/08/15 03:05:27;;;;;;;7.58;5.70;;;;;;;23.48;61.52;99512.65;1825090;77;20962;-71
2022/08/15 03:07:54;;;;;;;7.42;5.30;;;;;;;23.51;61.37;99512.19;1829123;77;21404;-69
2022/08/15 03:10:22;;;;;;;6.42;5.75;;;;;;;23.55;61.23;99517.44;1817715;77;21817;-71
2022/08/15 03:12:55;;;;;;;6.58;5.65;;;;;;;23.58;61.20;99519.67;1816741;77;20930;-70
2022/08/15 03:15:32;;;;;;;7.95;5.53;;;;;;;23.60;61.17;99517.59;1820035;76;21044;-72
2022/08/15 03:17:59;;;;;;;13.50;5.92;;;;;;;23.61;61.16;99520.06;1817251;77;21073;-71
2022/08/15 03:20:26;;;;;;;8.35;5.55;;;;;;;23.64;61.15;99524.16;1816837;76;20993;-70
2022/08/15 03:22:53;;;;;;;8.23;6.15;;;;;;;23.63;61.16;99516.60;1827712;77;21934;-70
2022/08/15 03:25:25;;;;;;;7.95;5.50;;;;;;;23.65;61.18;99517.75;1824903;77;21521;-72
2022/08/15 03:27:53;;;;;;;10.32;5.65;;;;;;;23.64;61.09;99517.42;1834885;76;22371;-71
2022/08/15 03:30:19;;;;;;;7.15;5.70;;;;;;;23.65;61.00;99523.14;1815724;76;21369;-76
2022/08/15 03:32:55;;;;;;;7.35;5.33;;;;;;;23.67;61.02;99521.03;1824582;77;21516;-70
2022/08/15 03:35:26;;;;;;;7.60;5.40;;;;;;;23.69;61.01;99517.58;1828556;76;21809;-71
2022/08/15 03:37:53;;;;;;;7.10;5.40;;;;;;;23.68;60.82;99511.89;1803254;77;21033;-71
2022/08/15 03:40:20;;;;;;;8.03;5.55;;;;;;;23.71;60.75;99518.17;1827905;76;20965;-71
2022/08/15 03:42:57;;;;;;;9.93;5.62;;;;;;;23.74;60.68;99516.88;1814627;77;20962;-73
2022/08/15 03:45:25;;;;;;;7.92;5.58;;;;;;;23.78;60.56;99519.44;1826881;76;21143;-71
2022/08/15 03:47:52;;;;;;;6.47;5.53;;;;;;;23.80;60.35;99528.94;1816192;77;21936;-70
2022/08/15 03:50:19;;;;;;;6.30;5.60;;;;;;;23.85;60.27;99520.17;1823889;77;21072;-75
2022/08/15 03:52:59;;;;;;;9.78;5.78;;;;;;;23.89;60.17;99522.17;1826682;76;20950;-69
2022/08/15 03:55:28;;;;;;;6.55;5.45;;;;;;;23.93;60.08;99517.12;1804573;79;21004;-71
2022/08/15 03:57:55;;;;;;;8.13;5.47;;;;;;;23.96;59.85;99518.04;1828261;77;20997;-74
2022/08/15 04:00:25;;;;;;;9.58;5.80;;;;;;;23.99;59.75;99516.22;1815565;77;21926;-71
2022/08/15 04:02:53;;;;;;;8.28;5.45;;;;;;;24.01;59.59;99513.29;1801028;76;20990;-72
2022/08/15 04:05:20;;;;;;;8.40;5.42;;;;;;;24.05;59.47;99513.14;1821119;77;21037;-70
2022/08/15 04:07:47;;;;;;;11.25;5.35;;;;;;;24.07;59.38;99509.69;1811948;77;20938;-71
2022/08/15 04:10:16;;;;;;;6.70;5.25;;;;;;;24.09;59.46;99505.70;1818622;77;21060;-71
2022/08/15 04:12:47;;;;;;;8.15;5.28;;;;;;;24.10;59.33;99501.94;1822245;77;21819;-70
2022/08/15 04:15:15;;;;;;;7.42;5.40;;;;;;;24.13;59.20;99510.12;1819088;77;21434;-74
2022/08/15 04:17:42;;;;;;;6.92;5.30;;;;;;;24.13;59.00;99506.89;1800521;77;21010;-71
2022/08/15 04:20:11;;;;;;;6.15;5.30;;;;;;;24.14;58.89;99509.06;1826607;77;21467;-72
2022/08/15 04:22:44;;;;;;;7.22;5.60;;;;;;;24.15;58.83;99500.73;1834159;76;21081;-71
2022/08/15 04:25:22;;;;;;;7.00;5.35;;;;;;;24.16;58.71;99502.91;1826995;77;21951;-71
2022/08/15 04:27:51;;;;;;;7.92;5.40;;;;;;;24.17;58.63;99508.06;1825514;76;21037;-71
2022/08/15 04:30:17;;;;;;;10.32;5.30;;;;;;;24.18;58.50;99498.09;1822328;76;21089;-70
2022/08/15 04:32:44;;;;;;;8.50;5.50;;;;;;;24.20;58.50;99497.33;1833236;76;21631;-74
2022/08/15 04:35:11;;;;;;;9.15;5.40;;;;;;;24.23;58.31;99492.84;1814756;77;21505;-71
2022/08/15 04:37:42;;;;;;;8.58;5.00;;;;;;;24.25;58.21;99494.77;1803536;78;21889;-71
2022/08/15 04:40:12;;;;;;;8.03;5.25;;;;;;;24.27;58.12;99492.66;1795458;78;20906;-73
2022/08/15 04:42:47;;;;;;;11.63;5.40;;;;;;;24.28;57.98;99492.42;1804990;78;21049;-72
2022/08/15 04:45:14;;;;;;;7.33;4.80;;;;;;;24.32;57.88;99491.47;1804989;77;20980;-72
2022/08/15 04:47:42;;;;;;;6.60;4.83;;;;;;;24.35;57.77;99501.80;1792081;78;21105;-73
2022/08/15 04:50:09;;;;;;;10.23;5.20;;;;;;;24.40;57.68;99499.73;1797834;78;21996;-71
2022/08/15 04:52:49;;;;;;;6.60;5.83;;;;;;;24.45;57.70;99496.64;1787478;78;21052;-75
2022/08/15 04:55:17;;;;;;;9.20;5.20;;;;;;;24.52;57.56;99498.71;1771109;79;21120;-73
2022/08/15 04:57:44;;;;;;;8.78;5.50;;;;;;;24.61;57.39;99499.69;1795302;78;21011;-72
2022/08/15 05:00:14;;;;;;;7.78;5.22;;;;;;;24.67;56.84;99504.98;1793140;77;21044;-72
2022/08/15 05:03:10;;;;;;;7.67;5.40;;;;;;;24.72;56.81;99507.81;1818060;77;22316;-72
2022/08/15 05:05:42;;;;;;;36.98;32.78;;;;;;;24.78;56.85;99513.60;1785146;79;21014;-73
2022/08/15 05:08:14;;;;;;;9.18;6.90;;;;;;;24.83;56.48;99504.81;1825660;77;21067;-73
2022/08/15 05:10:44;;;;;;;23.73;18.00;;;;;;;24.87;55.95;99500.56;1793975;77;20984;-71
2022/08/15 05:13:18;;;;;;;8.73;7.83;;;;;;;24.91;55.99;99499.05;1834254;77;21013;-72
2022/08/15 05:15:45;;;;;;;36.40;32.10;;;;;;;24.94;55.57;99505.33;1823160;77;22590;-71
2022/08/15 05:18:13;;;;;;;9.33;8.43;;;;;;;24.97;55.51;99500.80;1817007;77;21416;-71
2022/08/15 05:20:41;;;;;;;10.35;5.95;;;;;;;24.99;55.35;99496.50;1821037;77;21756;-71
2022/08/15 05:23:12;;;;;;;6.85;5.15;;;;;;;24.98;55.26;99495.67;1826039;77;21684;-70
2022/08/15 05:25:47;;;;;;;8.35;5.00;;;;;;;24.94;55.16;99499.92;1820018;77;21514;-70
2022/08/15 05:28:14;;;;;;;9.73;4.92;;;;;;;24.90;55.34;99502.82;1782035;79;21927;-70
2022/08/15 05:30:40;;;;;;;6.75;5.00;;;;;;;24.88;55.39;99514.36;1786684;79;21542;-69
2022/08/15 05:33:12;;;;;;;8.70;5.03;;;;;;;24.90;55.34;99512.27;1783853;79;21430;-70
2022/08/15 05:35:41;;;;;;;9.35;5.55;;;;;;;24.91;55.00;99507.69;1828294;77;21331;-70
2022/08/15 05:38:26;;;;;;;6.47;5.00;;;;;;;24.92;55.03;99512.85;1824574;77;21432;-70
2022/08/15 05:41:18;;;;;;;7.42;4.90;;;;;;;24.90;54.98;99522.23;1800748;77;21861;-70
2022/08/15 05:44:28;;;;;;;8.25;4.80;;;;;;;24.86;54.95;99529.17;1826183;77;21064;-70
2022/08/15 05:47:10;;;;;;;9.73;5.10;;;;;;;24.82;55.04;99527.48;1825089;77;21511;-74
2022/08/15 05:49:54;;;;;;;6.03;4.37;;;;;;;24.73;56.09;99529.70;1826894;77;20985;-70
2022/08/15 05:52:50;;;;;;;6.60;5.58;;;;;;;24.61;57.17;99526.19;1793936;77;21139;-73
2022/08/15 05:55:25;;;;;;;7.70;4.65;;;;;;;24.46;57.97;99533.38;1792980;79;21791;-74
2022/08/15 05:58:07;;;;;;;7.33;5.12;;;;;;;24.31;58.36;99538.88;1796181;79;21007;-71
2022/08/15 06:00:35;;;;;;;7.90;4.92;;;;;;;24.19;59.08;99531.59;1801739;79;21077;-71
2022/08/15 06:03:15;;;;;;;8.40;6.75;;;;;;;24.05;59.75;99535.55;1747864;79;21051;-70
2022/08/15 06:05:47;;;;;;;8.73;7.40;;;;;;;23.92;60.19;99531.14;1788242;79;21516;-73
2022/08/15 06:08:21;;;;;;;19.37;15.15;;;;;;;23.84;60.67;99525.27;1769724;80;21830;-72
2022/08/15 06:11:08;;;;;;;7.37;5.83;;;;;;;23.77;61.02;99520.48;1797294;79;20928;-71
2022/08/15 06:13:45;;;;;;;13.13;11.30;;;;;;;23.67;61.37;99508.38;1804314;77;20931;-71
2022/08/15 06:16:26;;;;;;;12.45;9.55;;;;;;;23.55;62.03;99492.66;1784221;79;21089;-72
2022/08/15 06:18:55;;;;;;;8.23;5.92;;;;;;;23.45;62.16;99523.86;1783344;79;20992;-73
2022/08/15 06:21:54;;;;;;;7.95;5.20;;;;;;;23.38;62.43;99518.57;1776861;79;21816;-73
2022/08/15 06:24:44;;;;;;;12.18;9.03;;;;;;;23.32;62.70;99516.23;1741749;79;21046;-72
2022/08/15 06:27:20;;;;;;;22.32;19.92;;;;;;;23.25;63.04;99523.57;1792053;79;21527;-72
2022/08/15 06:30:04;;;;;;;8.40;6.83;;;;;;;23.18;63.38;99525.54;1791571;79;21048;-72
2022/08/15 06:36:19;;;;;;;10.53;7.15;;;;;;;23.20;63.88;99524.78;1773421;79;21019;-71
2022/08/15 06:39:06;;;;;;;7.97;5.75;;;;;;;23.23;63.82;99520.28;1772379;79;21453;-71
2022/08/15 06:41:42;;;;;;;27.73;24.25;;;;;;;23.29;63.72;99524.78;1797258;77;21006;-70
2022/08/15 06:44:11;;;;;;;12.35;7.42;;;;;;;23.36;63.60;99527.41;1831489;77;21025;-74
2022/08/15 06:46:40;;;;;;;8.55;5.70;;;;;;;23.40;63.31;99528.59;1822413;77;21041;-74
2022/08/15 06:49:10;;;;;;;10.28;5.53;;;;;;;23.45;63.17;99543.58;1820515;77;21777;-75
2022/08/15 06:51:39;;;;;;;27.67;21.97;;;;;;;23.52;62.91;99544.30;1831737;76;21104;-73
2022/08/15 06:54:08;;;;;;;9.18;8.00;;;;;;;23.57;62.65;99539.06;1764774;80;20953;-73
2022/08/15 06:56:40;;;;;;;11.70;6.08;;;;;;;23.63;62.43;99549.48;1772236;81;20963;-71
2022/08/15 06:59:36;;;;;;;5.97;4.97;;;;;;;23.66;62.13;99547.70;1847517;77;20942;-73
2022/08/15 07:02:27;;;;;;;9.95;5.20;;;;;;;23.66;61.74;99543.13;1816487;77;21743;-72
2022/08/15 07:05:15;;;;;;;8.75;5.62;;;;;;;23.67;61.72;99550.16;1820813;77;21599;-72
2022/08/15 07:08:03;;;;;;;10.23;5.60;;;;;;;23.70;61.60;99549.70;1829425;76;20986;-73
2022/08/15 07:10:51;;;;;;;67.30;60.58;;;;;;;23.75;61.79;99544.99;1825548;77;21425;-71
2022/08/15 07:13:26;;;;;;;14.60;10.70;;;;;;;23.80;61.79;99543.77;1827125;76;20935;-74
2022/08/15 07:15:56;;;;;;;8.20;6.20;;;;;;;23.83;61.30;99536.56;1817426;77;21931;-73
2022/08/15 07:18:39;;;;;;;9.18;5.40;;;;;;;23.89;61.40;99542.92;1830666;77;21476;-74
2022/08/15 07:21:14;;;;;;;8.50;5.22;;;;;;;23.96;61.16;99539.09;1822221;77;20946;-70
2022/08/15 07:24:04;;;;;;;8.38;5.22;;;;;;;24.04;60.87;99539.83;1823137;77;21072;-73
2022/08/15 07:26:48;;;;;;;10.03;5.22;;;;;;;24.13;60.63;99533.05;1817199;77;21025;-73
2022/08/15 07:29:38;;;;;;;12.45;5.45;;;;;;;24.26;60.41;99542.28;1816582;77;21925;-73
2022/08/15 07:32:24;;;;;;;12.23;4.92;;;;;;;24.40;59.86;99559.94;1819196;77;21040;-75
2022/08/15 07:34:59;;;;;;;9.58;5.08;;;;;;;24.54;59.58;99569.48;1806569;78;21121;-74
2022/08/15 07:37:34;;;;;;;6.50;4.78;;;;;;;24.68;59.27;99559.28;1803468;79;21419;-72
2022/08/15 07:40:10;;;;;;;6.35;4.78;;;;;;;24.76;58.36;99563.52;1798857;79;21038;-73
2022/08/15 07:42:41;;;;;;;8.08;4.83;;;;;;;24.83;57.81;99576.39;1776187;79;21866;-72
2022/08/15 07:45:30;;;;;;;7.40;4.22;;;;;;;24.87;57.50;99565.92;1779372;78;20947;-72
2022/08/15 07:48:07;;;;;;;8.20;4.72;;;;;;;24.91;57.30;99572.52;1759210;79;21447;-72
2022/08/15 07:50:41;;;;;;;5.70;4.37;;;;;;;24.96;56.99;99574.80;1762185;79;21031;-71
2022/08/15 07:53:22;;;;;;;6.25;4.60;;;;;;;24.99;56.95;99571.61;1812522;77;21033;-70
2022/08/15 07:56:12;;;;;;;7.85;4.70;;;;;;;25.04;56.42;99573.13;1724099;81;22533;-69
2022/08/15 07:58:39;;;;;;;10.03;4.85;;;;;;;25.04;56.36;99571.77;1790292;78;21029;-70
2022/08/15 08:01:29;;;;;;;8.38;4.67;;;;;;;25.08;56.22;99573.47;1794616;78;21358;-70
2022/08/15 08:04:12;;;;;;;11.05;5.17;;;;;;;25.11;56.62;99565.73;1811047;78;20975;-70
2022/08/15 08:06:57;;;;;;;11.00;5.15;;;;;;;25.20;56.51;99574.84;1760762;81;21057;-70
2022/08/15 08:09:45;;;;;;;7.37;5.40;;;;;;;25.28;56.42;99563.10;1800289;77;21744;-70
2022/08/15 08:12:27;;;;;;;6.35;5.20;;;;;;;25.41;56.64;99555.28;1753726;81;20922;-69
2022/08/15 08:15:23;;;;;;;7.95;5.12;;;;;;;25.53;56.00;99553.90;1819829;78;21003;-69
2022/08/15 08:17:59;;;;;;;;;;;;;;;25.61;55.63;99543.53;1788772;79;20959;-71
2022/08/15 08:20:44;;;;;;;9.23;5.30;;;;;;;25.74;55.58;99534.87;1799207;78;20125;-70
2022/08/15 08:23:34;;;;;;;7.78;5.42;;;;;;;25.77;54.24;99527.11;1822964;78;21915;-69
2022/08/15 08:26:42;;;;;;;12.20;6.65;;;;;;;25.74;54.41;99527.58;1824605;78;20939;-69
2022/08/15 08:29:24;;;;;;;15.50;7.72;;;;;;;25.76;54.79;99524.62;1797543;79;20993;-70
2022/08/15 08:32:18;;;;;;;20.20;13.05;;;;;;;25.75;55.20;99525.16;1765903;80;21018;-69
2022/08/15 08:35:05;;;;;;;14.23;9.48;;;;;;;25.72;54.95;99516.71;1737864;81;21386;-69
2022/08/15 08:37:55;;;;;;;11.73;7.05;;;;;;;25.67;54.76;99514.19;1820841;78;21760;-69
2022/08/15 08:43:26;;;;;;;8.10;5.20;;;;;;;25.66;54.92;99512.52;1795726;78;20991;-70
2022/08/15 08:46:41;;;;;;;11.43;5.85;;;;;;;25.74;54.86;99511.88;1778741;78;20980;-69
2022/08/15 08:49:38;;;;;;;11.90;5.53;;;;;;;25.88;55.12;99514.59;1790173;78;20935;-69
2022/08/15 08:52:32;;;;;;;8.90;5.62;;;;;;;26.21;55.55;99509.22;1818671;78;21924;-69
2022/08/15 08:55:11;;;;;;;6.00;4.95;;;;;;;26.61;54.92;99509.62;1785263;79;20961;-70
2022/08/15 08:57:46;;;;;;;9.03;5.20;;;;;;;27.01;55.07;99499.08;1805432;78;21073;-68
2022/08/15 09:00:21;;;;;;;8.08;4.90;;;;;;;27.37;53.91;99497.14;1786702;79;20997;-69
2022/08/15 09:02:53;;;;;;;9.13;5.25;;;;;;;27.64;52.85;99488.23;1798291;78;21335;-69
2022/08/15 09:05:42;;;;;;;13.83;5.03;;;;;;;27.83;51.79;99495.52;1804605;79;22213;-69
2022/08/15 09:08:14;;;;;;;8.33;4.65;;;;;;;27.89;51.24;99495.83;1785390;79;21033;-69
2022/08/15 09:10:45;;;;;;;9.88;4.72;;;;;;;27.87;50.82;99488.48;1795633;78;21011;-70
2022/08/15 09:15:59;;;;;;;10.08;4.37;;;;;;;27.72;51.02;99485.09;1798689;78;20978;-69
2022/08/15 09:18:30;;;;;;;8.78;4.87;;;;;;;27.64;50.55;99478.20;1798020;78;22553;-69
2022/08/15 09:20:57;;;;;;;10.28;4.33;;;;;;;27.61;50.68;99481.97;1801436;78;20979;-70
2022/08/15 09:23:23;;;;;;;8.33;4.60;;;;;;;27.60;50.14;99482.51;1782281;79;21033;-70
2022/08/15 09:25:55;;;;;;;11.20;4.97;;;;;;;27.68;50.35;99474.99;1823642;78;20974;-69
2022/08/15 09:28:41;;;;;;;11.90;4.62;;;;;;;27.77;50.25;99481.60;1811056;78;21412;-69
2022/08/15 09:31:18;;;;;;;9.65;4.83;;;;;;;27.88;50.14;99486.87;1811968;78;21834;-70
2022/08/15 09:34:02;;;;;;;8.08;4.60;;;;;;;28.06;50.09;99486.22;1829783;78;20986;-70
2022/08/15 09:37:05;;;;;;;9.03;4.58;;;;;;;28.16;49.75;99493.09;1799077;78;21490;-71
2022/08/15 09:39:46;;;;;;;9.00;4.50;;;;;;;28.14;49.54;99489.29;1809321;78;21595;-72
2022/08/15 09:42:39;;;;;;;8.70;4.67;;;;;;;28.07;49.80;99498.17;1818194;77;21481;-74
2022/08/15 09:45:48;;;;;;;11.00;5.00;;;;;;;28.00;50.51;99498.95;1810203;77;21832;-71
2022/08/15 09:48:33;;;;;;;9.40;4.72;;;;;;;27.99;50.79;99491.03;1801664;78;20986;-75
2022/08/15 09:51:14;;;;;;;8.38;4.83;;;;;;;28.03;50.77;99497.06;1799949;78;20983;-70
2022/08/15 09:53:49;;;;;;;8.08;4.97;;;;;;;28.11;50.71;99495.78;1803295;78;21057;-71
2022/08/15 09:56:21;;;;;;;10.95;4.60;;;;;;;28.18;50.46;99496.37;1767956;79;20996;-72
2022/08/15 09:59:09;;;;;;;11.95;5.10;;;;;;;28.21;49.86;99503.48;1792124;78;21809;-73
2022/08/15 10:01:49;;;;;;;6.95;4.35;;;;;;;28.18;49.49;99507.23;1772975;79;20961;-75
2022/08/15 10:04:18;;;;;;;8.43;4.45;;;;;;;28.17;49.86;99506.95;1803298;78;21022;-72
2022/08/15 10:07:08;;;;;;;8.45;4.80;;;;;;;28.18;49.46;99504.52;1755663;79;21108;-73
2022/08/15 10:09:44;;;;;;;9.73;4.20;;;;;;;28.16;49.51;99495.81;1804899;78;20979;-76
2022/08/15 10:12:20;;;;;;;8.45;4.85;;;;;;;28.18;49.56;99493.66;1758928;79;22259;-73
2022/08/15 10:14:55;;;;;;;6.70;4.17;;;;;;;28.22;48.92;99486.64;1798515;78;21557;-72
2022/08/15 10:17:37;;;;;;;8.93;4.50;;;;;;;28.21;48.37;99478.22;1730597;80;21092;-74
2022/08/15 10:20:29;;;;;;;8.80;4.40;;;;;;;28.13;48.64;99483.58;1800645;78;21586;-73
2022/08/15 10:23:07;;;;;;;8.30;4.10;;;;;;;28.13;49.29;99485.48;1752549;79;21104;-73
2022/08/15 10:25:42;;;;;;;10.70;4.30;;;;;;;28.19;49.82;99494.78;1800878;78;22239;-73
2022/08/15 10:28:22;;;;;;;11.78;4.60;;;;;;;28.31;50.12;99486.48;1784208;79;21475;-79
2022/08/15 10:31:04;;;;;;;5.33;3.95;;;;;;;28.44;49.64;99482.50;1784691;79;20970;-79
2022/08/15 10:33:39;;;;;;;9.43;4.30;;;;;;;28.54;49.55;99480.39;1785252;78;20967;-76
2022/08/15 10:36:23;;;;;;;7.33;3.98;;;;;;;28.67;49.00;99486.75;1772639;79;20973;-76
2022/08/15 10:39:24;;;;;;;7.30;4.00;;;;;;;28.83;48.29;99484.38;1795665;78;21918;-76
2022/08/15 10:42:27;;;;;;;12.15;4.25;;;;;;;29.10;47.03;99484.83;1772648;79;21444;-77
2022/08/15 10:45:17;;;;;;;6.30;4.30;;;;;;;29.66;46.32;99488.61;1747705;79;21049;-79
2022/08/15 10:48:17;;;;;;;8.08;4.03;;;;;;;29.66;46.32;99488.61;1775990;78;20987;-76
2022/08/15 10:51:15;;;;;;;7.35;4.20;;;;;;;29.87;44.16;99488.91;1789109;78;21511;-77
2022/08/15 10:54:09;;;;;;;7.37;4.42;;;;;;;30.09;44.30;99497.41;1812977;78;21833;-76
2022/08/15 10:56:38;;;;;;;8.48;4.12;;;;;;;30.38;44.51;99493.05;1737041;81;21420;-76
2022/08/15 10:59:13;;;;;;;7.85;4.22;;;;;;;30.63;44.18;99505.84;1791958;78;20943;-76
2022/08/15 11:01:43;;;;;;;9.85;4.60;;;;;;;30.73;44.07;99505.86;1745163;81;20974;-77
2022/08/15 11:04:17;;;;;;;6.35;4.20;;;;;;;30.78;43.83;99496.30;1795858;78;21323;-76
2022/08/15 11:06:50;;;;;;;7.03;3.92;;;;;;;30.77;43.50;99497.39;1766500;81;21851;-76
2022/08/15 11:09:18;;;;;;;;;;;;;;;30.77;44.05;99498.75;1822237;78;20924;-77
2022/08/15 11:11:55;;;;;;;10.05;4.08;;;;;;;30.91;44.23;99495.47;1792834;78;20132;-76
2022/08/15 11:14:29;;;;;;;12.95;4.47;;;;;;;31.14;44.04;99503.02;1823368;78;21121;-77
2022/08/15 11:16:58;;;;;;;9.43;4.53;;;;;;;31.41;42.91;99488.22;1808292;78;20991;-77
2022/08/15 11:19:33;;;;;;;11.28;4.00;;;;;;;31.52;42.51;99487.88;1768419;80;21797;-76
2022/08/15 11:22:03;;;;;;;9.88;4.03;;;;;;;31.49;41.71;99493.09;1767959;81;20934;-76
2022/08/15 11:24:39;;;;;;;6.25;3.90;;;;;;;31.49;42.51;99484.91;1795936;78;20937;-76
2022/08/15 11:27:19;;;;;;;5.22;3.92;;;;;;;31.52;42.56;99478.88;1798938;79;21388;-76
2022/08/15 11:29:46;;;;;;;7.05;4.35;;;;;;;31.60;42.35;99479.65;1810777;77;21423;-77
2022/08/15 11:32:33;;;;;;;8.35;4.10;;;;;;;31.63;42.34;99477.16;1821497;78;21870;-76
2022/08/15 11:35:03;;;;;;;9.20;4.28;;;;;;;31.66;42.53;99481.27;1799181;78;20986;-76
2022/08/15 11:37:35;;;;;;;8.53;4.35;;;;;;;31.57;42.64;99483.77;1787412;78;20999;-77
2022/08/15 11:40:07;;;;;;;9.03;3.83;;;;;;;31.48;42.72;99476.45;1764534;79;21069;-79
2022/08/15 11:42:39;;;;;;;8.83;4.30;;;;;;;31.35;42.62;99480.59;1792355;78;21494;-76
2022/08/15 11:45:12;;;;;;;9.15;3.77;;;;;;;31.18;43.09;99474.66;1790867;79;21893;-79
2022/08/15 11:47:47;;;;;;;10.88;4.20;;;;;;;31.05;43.75;99485.59;1791463;78;20939;-77
2022/08/15 11:50:29;;;;;;;7.35;3.80;;;;;;;31.02;44.00;99482.88;1767697;81;20997;-78
2022/08/15 11:53:02;;;;;;;12.28;4.03;;;;;;;31.01;43.57;99481.80;1802435;78;21454;-78
2022/08/15 11:55:39;;;;;;;8.18;4.00;;;;;;;30.97;44.12;99482.88;1767983;78;21454;-77
2022/08/15 11:58:14;;;;;;;7.92;4.10;;;;;;;31.10;44.07;99484.23;1746386;81;22672;-78
2022/08/15 12:00:51;;;;;;;11.60;4.28;;;;;;;31.35;44.42;99480.59;1805271;78;20995;-78
2022/08/15 12:03:33;;;;;;;11.30;3.85;;;;;;;31.54;43.87;99479.40;1759814;81;21036;-78
2022/08/15 12:06:27;;;;;;;14.10;4.17;;;;;;;31.61;43.06;99478.55;1802520;78;20960;-77
2022/08/15 12:08:54;;;;;;;11.78;4.08;;;;;;;31.50;41.97;99475.06;1793766;78;21038;-78
2022/08/15 12:11:24;;;;;;;8.75;4.50;;;;;;;31.34;42.58;99476.23;1743531;78;21951;-78
2022/08/15 12:13:58;;;;;;;11.05;4.28;;;;;;;31.24;42.83;99482.55;1791028;78;21283;-77
2022/08/15 12:16:29;;;;;;;6.58;4.80;;;;;;;31.13;42.52;99489.66;1789614;78;20975;-77
2022/08/15 12:18:55;;;;;;;8.13;4.90;;;;;;;31.02;42.59;99495.16;1790723;78;21541;-78
2022/08/15 12:21:23;;;;;;;8.08;4.85;;;;;;;30.96;42.23;99492.71;1796046;78;21437;-77
2022/08/15 12:23:57;;;;;;;10.28;5.08;;;;;;;30.82;42.51;99491.13;1785943;78;22590;-77